sensor_id;sensor_type;location;lat;lon;timestamp;pressure;altitude;pressure_sealevel;temperature;humidity
76404;BME280;65232;48.358;2.122;2023-04-07T00:00:15;101088.91;;;6.12;82.55
76404;BME280;65232;48.358;2.122;2023-04-07T00:00:42;101087.00;;;6.14;82.31
76404;BME280;65232;48.358;2.122;2023-04-07T00:01:07;101089.06;;;6.09;82.50
76404;BME280;65232;48.358;2.122;2023-04-07T00:01:33;101086.16;;;6.13;82.31
76404;BME280;65232;48.358;2.122;2023-04-07T00:01:58;101090.78;;;6.10;82.14
76404;BME280;65232;48.358;2.122;2023-04-07T00:02:23;101086.06;;;6.15;82.27
76404;BME280;65232;48.358;2.122;2023-04-07T00:02:49;101079.41;;;6.08;82.20
76404;BME280;65232;48.358;2.122;2023-04-07T00:03:16;101094.75;;;6.03;82.41
76404;BME280;65232;48.358;2.122;2023-04-07T00:03:42;101083.47;;;5.99;82.39
76404;BME280;65232;48.358;2.122;2023-04-07T00:04:08;101090.09;;;5.92;82.74
76404;BME280;65232;48.358;2.122;2023-04-07T00:04:33;101092.66;;;5.93;83.09
76404;BME280;65232;48.358;2.122;2023-04-07T00:04:58;101096.13;;;5.94;82.85
76404;BME280;65232;48.358;2.122;2023-04-07T00:05:24;101096.47;;;6.04;82.93
76404;BME280;65232;48.358;2.122;2023-04-07T00:05:49;101102.56;;;6.06;82.73
76404;BME280;65232;48.358;2.122;2023-04-07T00:06:15;101100.66;;;6.08;82.52
76404;BME280;65232;48.358;2.122;2023-04-07T00:06:40;101098.75;;;6.10;82.60
76404;BME280;65232;48.358;2.122;2023-04-07T00:07:07;101098.09;;;6.06;82.68
76404;BME280;65232;48.358;2.122;2023-04-07T00:07:33;101098.09;;;6.06;82.42
76404;BME280;65232;48.358;2.122;2023-04-07T00:07:58;101100.16;;;6.01;82.32
76404;BME280;65232;48.358;2.122;2023-04-07T00:08:24;101092.53;;;5.95;82.62
76404;BME280;65232;48.358;2.122;2023-04-07T00:08:49;101096.13;;;5.94;82.43
76404;BME280;65232;48.358;2.122;2023-04-07T00:09:15;101104.88;;;5.96;82.52
76404;BME280;65232;48.358;2.122;2023-04-07T00:09:40;101098.53;;;5.98;82.60
76404;BME280;65232;48.358;2.122;2023-04-07T00:10:06;101098.38;;;6.01;82.35
76404;BME280;65232;48.358;2.122;2023-04-07T00:10:32;101096.94;;;6.10;82.34
76404;BME280;65232;48.358;2.122;2023-04-07T00:10:57;101092.50;;;6.11;82.42
76404;BME280;65232;48.358;2.122;2023-04-07T00:11:23;101091.63;;;6.10;82.21
76404;BME280;65232;48.358;2.122;2023-04-07T00:11:48;101096.94;;;6.10;82.23
76404;BME280;65232;48.358;2.122;2023-04-07T00:12:14;101092.78;;;6.06;82.21
76404;BME280;65232;48.358;2.122;2023-04-07T00:12:39;101094.84;;;6.01;82.25
76404;BME280;65232;48.358;2.122;2023-04-07T00:13:05;101091.34;;;6.00;82.50
76404;BME280;65232;48.358;2.122;2023-04-07T00:13:30;101091.97;;;5.90;82.53
76404;BME280;65232;48.358;2.122;2023-04-07T00:13:55;101092.94;;;5.89;82.61
76404;BME280;65232;48.358;2.122;2023-04-07T00:14:21;101095.41;;;5.92;82.63
76404;BME280;65232;48.358;2.122;2023-04-07T00:14:46;101086.28;;;5.96;82.26
76404;BME280;65232;48.358;2.122;2023-04-07T00:15:12;101096.91;;;5.96;82.26
76404;BME280;65232;48.358;2.122;2023-04-07T00:15:37;101090.66;;;5.97;82.37
76404;BME280;65232;48.358;2.122;2023-04-07T00:16:02;101091.16;;;6.04;82.23
76404;BME280;65232;48.358;2.122;2023-04-07T00:16:28;101087.47;;;6.06;82.08
76404;BME280;65232;48.358;2.122;2023-04-07T00:16:54;101094.75;;;6.03;82.16
76404;BME280;65232;48.358;2.122;2023-04-07T00:17:19;101095.03;;;5.98;82.13
76404;BME280;65232;48.358;2.122;2023-04-07T00:17:45;101095.31;;;5.93;82.05
76404;BME280;65232;48.358;2.122;2023-04-07T00:18:10;101094.47;;;5.93;82.23
76404;BME280;65232;48.358;2.122;2023-04-07T00:18:35;101092.94;;;5.89;82.32
76404;BME280;65232;48.358;2.122;2023-04-07T00:19:01;101095.59;;;5.89;82.22
76404;BME280;65232;48.358;2.122;2023-04-07T00:19:26;101090.31;;;5.87;82.45
76404;BME280;65232;48.358;2.122;2023-04-07T00:19:51;101100.25;;;5.84;82.42
76404;BME280;65232;48.358;2.122;2023-04-07T00:20:17;101096.56;;;5.86;82.46
76404;BME280;65232;48.358;2.122;2023-04-07T00:20:42;101093.16;;;5.84;82.45
76404;BME280;65232;48.358;2.122;2023-04-07T00:21:08;101094.72;;;5.88;82.58
76404;BME280;65232;48.358;2.122;2023-04-07T00:21:33;101093.84;;;5.88;82.10
76404;BME280;65232;48.358;2.122;2023-04-07T00:21:58;101093.06;;;5.86;82.25
76404;BME280;65232;48.358;2.122;2023-04-07T00:22:24;101090.41;;;5.86;82.30
76404;BME280;65232;48.358;2.122;2023-04-07T00:22:49;101094.19;;;5.82;82.47
76404;BME280;65232;48.358;2.122;2023-04-07T00:23:15;101087.25;;;5.79;82.15
76404;BME280;65232;48.358;2.122;2023-04-07T00:23:40;101092.56;;;5.79;82.23
76404;BME280;65232;48.358;2.122;2023-04-07T00:24:06;101088.31;;;5.77;82.19
76404;BME280;65232;48.358;2.122;2023-04-07T00:24:32;101093.78;;;5.74;82.24
76404;BME280;65232;48.358;2.122;2023-04-07T00:24:57;101091.91;;;5.76;82.48
76404;BME280;65232;48.358;2.122;2023-04-07T00:25:23;101088.38;;;5.75;82.13
76404;BME280;65232;48.358;2.122;2023-04-07T00:25:48;101091.22;;;5.72;82.41
76404;BME280;65232;48.358;2.122;2023-04-07T00:26:14;101093.28;;;5.67;82.15
76404;BME280;65232;48.358;2.122;2023-04-07T00:26:42;101088.81;;;5.67;82.64
76404;BME280;65232;48.358;2.122;2023-04-07T00:27:07;101089.66;;;5.68;82.29
76404;BME280;65232;48.358;2.122;2023-04-07T00:27:33;101082.66;;;5.67;82.20
76404;BME280;65232;48.358;2.122;2023-04-07T00:27:58;101087.88;;;5.68;82.24
76404;BME280;65232;48.358;2.122;2023-04-07T00:28:24;101084.28;;;5.70;82.25
76404;BME280;65232;48.358;2.122;2023-04-07T00:28:49;101086.06;;;5.69;82.52
76404;BME280;65232;48.358;2.122;2023-04-07T00:29:14;101079.75;;;5.72;82.21
76404;BME280;65232;48.358;2.122;2023-04-07T00:29:40;101090.34;;;5.72;82.11
76404;BME280;65232;48.358;2.122;2023-04-07T00:30:08;101087.97;;;5.67;82.23
76404;BME280;65232;48.358;2.122;2023-04-07T00:30:33;101089.84;;;5.65;82.20
76404;BME280;65232;48.358;2.122;2023-04-07T00:30:59;101090.03;;;5.62;82.14
76404;BME280;65232;48.358;2.122;2023-04-07T00:31:24;101084.81;;;5.60;82.18
76404;BME280;65232;48.358;2.122;2023-04-07T00:31:50;101090.31;;;5.57;82.60
76404;BME280;65232;48.358;2.122;2023-04-07T00:32:15;101082.25;;;5.59;82.54
76404;BME280;65232;48.358;2.122;2023-04-07T00:32:40;101087.66;;;5.57;82.61
76404;BME280;65232;48.358;2.122;2023-04-07T00:33:06;101086.03;;;5.55;82.82
76404;BME280;65232;48.358;2.122;2023-04-07T00:33:31;101085.94;;;5.56;82.65
76404;BME280;65232;48.358;2.122;2023-04-07T00:33:57;101088.75;;;5.53;82.89
76404;BME280;65232;48.358;2.122;2023-04-07T00:34:22;101086.97;;;5.54;82.66
76404;BME280;65232;48.358;2.122;2023-04-07T00:34:48;101082.34;;;5.57;82.88
76404;BME280;65232;48.358;2.122;2023-04-07T00:35:13;101086.78;;;5.57;82.65
76404;BME280;65232;48.358;2.122;2023-04-07T00:35:38;101089.63;;;5.54;82.60
76404;BME280;65232;48.358;2.122;2023-04-07T00:36:04;101076.84;;;5.60;82.78
76404;BME280;65232;48.358;2.122;2023-04-07T00:36:30;101079.13;;;5.66;82.33
76404;BME280;65232;48.358;2.122;2023-04-07T00:36:56;101079.34;;;5.63;82.35
76404;BME280;65232;48.358;2.122;2023-04-07T00:37:21;101073.06;;;5.64;82.15
76404;BME280;65232;48.358;2.122;2023-04-07T00:37:48;101076.78;;;5.62;82.26
76404;BME280;65232;48.358;2.122;2023-04-07T00:38:14;101080.47;;;5.59;82.36
76404;BME280;65232;48.358;2.122;2023-04-07T00:38:39;101083.38;;;5.55;82.13
76404;BME280;65232;48.358;2.122;2023-04-07T00:39:05;101079.00;;;5.54;82.19
76404;BME280;65232;48.358;2.122;2023-04-07T00:39:31;101086.78;;;5.57;82.47
76404;BME280;65232;48.358;2.122;2023-04-07T00:39:56;101084.22;;;5.55;82.59
76404;BME280;65232;48.358;2.122;2023-04-07T00:40:23;101087.31;;;5.63;82.28
76404;BME280;65232;48.358;2.122;2023-04-07T00:40:49;101083.88;;;5.61;82.07
76404;BME280;65232;48.358;2.122;2023-04-07T00:41:15;101083.19;;;5.58;81.96
76404;BME280;65232;48.358;2.122;2023-04-07T00:41:40;101080.72;;;5.55;81.93
76404;BME280;65232;48.358;2.122;2023-04-07T00:42:06;101084.31;;;5.54;81.82
76404;BME280;65232;48.358;2.122;2023-04-07T00:42:32;101083.91;;;5.46;81.94
76404;BME280;65232;48.358;2.122;2023-04-07T00:42:57;101085.63;;;5.47;82.38
76404;BME280;65232;48.358;2.122;2023-04-07T00:43:23;101084.06;;;5.43;82.38
76404;BME280;65232;48.358;2.122;2023-04-07T00:43:50;101081.50;;;5.41;82.52
76404;BME280;65232;48.358;2.122;2023-04-07T00:44:15;101081.34;;;5.44;82.43
76404;BME280;65232;48.358;2.122;2023-04-07T00:44:41;101088.19;;;5.48;82.34
76404;BME280;65232;48.358;2.122;2023-04-07T00:45:07;101088.34;;;5.45;82.19
76404;BME280;65232;48.358;2.122;2023-04-07T00:45:35;101085.78;;;5.44;81.84
76404;BME280;65232;48.358;2.122;2023-04-07T00:46:02;101087.75;;;5.40;81.98
76404;BME280;65232;48.358;2.122;2023-04-07T00:46:27;101084.06;;;5.43;81.96
76404;BME280;65232;48.358;2.122;2023-04-07T00:46:53;101079.00;;;5.38;81.95
76404;BME280;65232;48.358;2.122;2023-04-07T00:47:19;101080.97;;;5.35;82.12
76404;BME280;65232;48.358;2.122;2023-04-07T00:47:44;101081.94;;;5.34;82.15
76404;BME280;65232;48.358;2.122;2023-04-07T00:48:10;101086.41;;;5.33;82.22
76404;BME280;65232;48.358;2.122;2023-04-07T00:48:35;101099.91;;;5.28;82.31
76404;BME280;65232;48.358;2.122;2023-04-07T00:49:01;101082.97;;;5.31;82.25
76404;BME280;65232;48.358;2.122;2023-04-07T00:49:27;101080.50;;;5.28;82.45
76404;BME280;65232;48.358;2.122;2023-04-07T00:49:52;101087.50;;;5.29;82.59
76404;BME280;65232;48.358;2.122;2023-04-07T00:50:18;101077.66;;;5.31;82.80
76404;BME280;65232;48.358;2.122;2023-04-07T00:50:44;101084.78;;;5.30;82.37
76404;BME280;65232;48.358;2.122;2023-04-07T00:51:10;101089.22;;;5.30;82.50
76404;BME280;65232;48.358;2.122;2023-04-07T00:51:36;101080.16;;;5.34;82.52
76404;BME280;65232;48.358;2.122;2023-04-07T00:52:01;101082.88;;;5.32;82.54
76404;BME280;65232;48.358;2.122;2023-04-07T00:52:27;101079.97;;;5.37;82.61
76404;BME280;65232;48.358;2.122;2023-04-07T00:52:54;101085.19;;;5.39;82.34
76404;BME280;65232;48.358;2.122;2023-04-07T00:53:21;101086.97;;;5.38;82.23
76404;BME280;65232;48.358;2.122;2023-04-07T00:53:48;101088.53;;;5.42;82.30
76404;BME280;65232;48.358;2.122;2023-04-07T00:54:14;101081.50;;;5.41;82.08
76404;BME280;65232;48.358;2.122;2023-04-07T00:54:41;101079.00;;;5.38;82.45
76404;BME280;65232;48.358;2.122;2023-04-07T00:55:06;101083.38;;;5.39;82.54
76404;BME280;65232;48.358;2.122;2023-04-07T00:55:32;101084.00;;;5.44;82.21
76404;BME280;65232;48.358;2.122;2023-04-07T00:55:58;101082.69;;;5.51;82.11
76404;BME280;65232;48.358;2.122;2023-04-07T00:56:23;101077.56;;;5.48;81.87
76404;BME280;65232;48.358;2.122;2023-04-07T00:56:49;101074.22;;;5.45;82.07
76404;BME280;65232;48.358;2.122;2023-04-07T00:57:15;101077.22;;;5.39;81.93
76404;BME280;65232;48.358;2.122;2023-04-07T00:57:40;101076.97;;;5.43;81.77
76404;BME280;65232;48.358;2.122;2023-04-07T00:58:06;101074.06;;;5.48;81.73
76404;BME280;65232;48.358;2.122;2023-04-07T00:58:31;101075.84;;;5.47;81.52
76404;BME280;65232;48.358;2.122;2023-04-07T00:58:57;101071.41;;;5.48;81.69
76404;BME280;65232;48.358;2.122;2023-04-07T00:59:23;101073.38;;;5.44;81.71
76404;BME280;65232;48.358;2.122;2023-04-07T00:59:50;101070.03;;;5.41;81.62
76404;BME280;65232;48.358;2.122;2023-04-07T01:00:16;101070.03;;;5.41;81.76
76404;BME280;65232;48.358;2.122;2023-04-07T01:00:50;101068.78;;;5.32;81.88
76404;BME280;65232;48.358;2.122;2023-04-07T01:01:24;101076.72;;;5.32;81.95
76404;BME280;65232;48.358;2.122;2023-04-07T01:03:00;101077.50;;;5.34;81.41
76404;BME280;65232;48.358;2.122;2023-04-07T01:03:44;101078.53;;;5.31;81.50
76404;BME280;65232;48.358;2.122;2023-04-07T01:04:35;101073.13;;;5.33;81.47
76404;BME280;65232;48.358;2.122;2023-04-07T01:05:40;101069.88;;;5.28;81.57
76404;BME280;65232;48.358;2.122;2023-04-07T01:06:07;101076.72;;;5.16;81.83
76404;BME280;65232;48.358;2.122;2023-04-07T01:06:34;101071.84;;;5.24;81.66
76404;BME280;65232;48.358;2.122;2023-04-07T01:07:08;101070.13;;;5.23;81.44
76404;BME280;65232;48.358;2.122;2023-04-07T01:08:53;101075.44;;;5.08;81.86
76404;BME280;65232;48.358;2.122;2023-04-07T01:09:30;101070.97;;;5.08;81.88
76404;BME280;65232;48.358;2.122;2023-04-07T01:10:03;101072.53;;;5.12;81.89
76404;BME280;65232;48.358;2.122;2023-04-07T01:10:43;101072.84;;;5.06;81.92
76404;BME280;65232;48.358;2.122;2023-04-07T01:11:23;101062.25;;;5.06;81.89
76404;BME280;65232;48.358;2.122;2023-04-07T01:12:36;101078.59;;;4.99;82.22
76404;BME280;65232;48.358;2.122;2023-04-07T01:13:45;101070.91;;;5.10;81.67
76404;BME280;65232;48.358;2.122;2023-04-07T01:14:50;101074.66;;;5.06;81.73
76404;BME280;65232;48.358;2.122;2023-04-07T01:15:36;101060.81;;;5.01;81.85
76404;BME280;65232;48.358;2.122;2023-04-07T01:16:10;101066.19;;;4.99;81.95
76404;BME280;65232;48.358;2.122;2023-04-07T01:16:47;101070.47;;;5.02;81.84
76404;BME280;65232;48.358;2.122;2023-04-07T01:17:16;101068.31;;;4.92;81.98
76404;BME280;65232;48.358;2.122;2023-04-07T01:17:59;101066.44;;;4.94;82.16
76404;BME280;65232;48.358;2.122;2023-04-07T01:18:31;101064.25;;;5.03;82.01
76404;BME280;65232;48.358;2.122;2023-04-07T01:19:15;101061.91;;;4.96;82.10
76404;BME280;65232;48.358;2.122;2023-04-07T01:20:04;101058.75;;;5.06;81.94
76404;BME280;65232;48.358;2.122;2023-04-07T01:20:33;101064.97;;;5.05;81.18
76404;BME280;65232;48.358;2.122;2023-04-07T01:21:06;101059.88;;;5.02;81.52
76404;BME280;65232;48.358;2.122;2023-04-07T01:21:32;101061.66;;;5.01;81.38
76404;BME280;65232;48.358;2.122;2023-04-07T01:22:00;101060.72;;;5.02;81.68
76404;BME280;65232;48.358;2.122;2023-04-07T01:22:35;101059.44;;;4.93;81.92
76404;BME280;65232;48.358;2.122;2023-04-07T01:23:06;101061.66;;;5.01;81.68
76404;BME280;65232;48.358;2.122;2023-04-07T01:23:51;101064.47;;;4.98;81.71
76404;BME280;65232;48.358;2.122;2023-04-07T01:24:33;101053.25;;;4.93;81.52
76404;BME280;65232;48.358;2.122;2023-04-07T01:25:05;101054.97;;;4.94;81.56
76404;BME280;65232;48.358;2.122;2023-04-07T01:26:03;101056.78;;;4.93;81.53
76404;BME280;65232;48.358;2.122;2023-04-07T01:26:32;101055.34;;;5.04;81.36
76404;BME280;65232;48.358;2.122;2023-04-07T01:27:07;101066.13;;;5.01;81.40
76404;BME280;65232;48.358;2.122;2023-04-07T01:29:51;101062.16;;;5.08;81.25
76404;BME280;65232;48.358;2.122;2023-04-07T01:30:18;101057.81;;;5.07;81.40
76404;BME280;65232;48.358;2.122;2023-04-07T01:30:45;101053.03;;;4.97;81.23
76404;BME280;65232;48.358;2.122;2023-04-07T01:31:11;101052.78;;;5.02;81.49
76404;BME280;65232;48.358;2.122;2023-04-07T01:31:39;101053.88;;;4.98;81.08
76404;BME280;65232;48.358;2.122;2023-04-07T01:32:09;101055.91;;;4.93;81.36
76404;BME280;65232;48.358;2.122;2023-04-07T01:32:36;101058.72;;;4.90;81.12
76404;BME280;65232;48.358;2.122;2023-04-07T01:33:04;101059.59;;;4.90;81.51
76404;BME280;65232;48.358;2.122;2023-04-07T01:33:33;101048.97;;;4.90;81.50
76404;BME280;65232;48.358;2.122;2023-04-07T01:34:00;101057.13;;;4.87;81.59
76404;BME280;65232;48.358;2.122;2023-04-07T01:34:33;101057.63;;;4.78;82.08
76404;BME280;65232;48.358;2.122;2023-04-07T01:35:01;101054.81;;;4.81;82.13
76404;BME280;65232;48.358;2.122;2023-04-07T01:35:33;101053.25;;;4.77;82.11
76404;BME280;65232;48.358;2.122;2023-04-07T01:36:00;101049.66;;;4.78;81.84
76404;BME280;65232;48.358;2.122;2023-04-07T01:36:28;101049.81;;;4.75;82.14
76404;BME280;65232;48.358;2.122;2023-04-07T01:37:01;101058.47;;;4.79;81.90
76404;BME280;65232;48.358;2.122;2023-04-07T01:37:27;101050.03;;;4.72;81.98
76404;BME280;65232;48.358;2.122;2023-04-07T01:37:54;101054.97;;;4.78;82.07
76404;BME280;65232;48.358;2.122;2023-04-07T01:38:30;101061.22;;;4.77;81.77
76404;BME280;65232;48.358;2.122;2023-04-07T01:39:00;101051.72;;;4.73;81.96
76404;BME280;65232;48.358;2.122;2023-04-07T01:39:26;101057.53;;;4.80;81.63
76404;BME280;65232;48.358;2.122;2023-04-07T01:39:55;101059.25;;;4.81;81.71
76404;BME280;65232;48.358;2.122;2023-04-07T01:40:24;101054.81;;;4.81;81.30
76404;BME280;65232;48.358;2.122;2023-04-07T01:40:56;101059.94;;;4.84;81.41
76404;BME280;65232;48.358;2.122;2023-04-07T01:41:23;101058.84;;;4.88;81.20
76404;BME280;65232;48.358;2.122;2023-04-07T01:41:52;101059.09;;;4.84;81.22
76404;BME280;65232;48.358;2.122;2023-04-07T01:42:21;101052.94;;;4.83;81.32
76404;BME280;65232;48.358;2.122;2023-04-07T01:42:48;101059.94;;;4.84;81.10
76404;BME280;65232;48.358;2.122;2023-04-07T01:43:14;101062.91;;;4.78;81.09
76404;BME280;65232;48.358;2.122;2023-04-07T01:43:41;101059.59;;;4.75;81.36
76404;BME280;65232;48.358;2.122;2023-04-07T01:44:08;101062.84;;;4.80;81.32
76404;BME280;65232;48.358;2.122;2023-04-07T01:44:34;101062.06;;;4.78;81.27
76404;BME280;65232;48.358;2.122;2023-04-07T01:45:01;101063.28;;;4.72;81.32
76404;BME280;65232;48.358;2.122;2023-04-07T01:45:27;101054.47;;;4.72;81.50
76404;BME280;65232;48.358;2.122;2023-04-07T01:45:56;101059.00;;;4.70;81.46
76404;BME280;65232;48.358;2.122;2023-04-07T01:46:21;101062.50;;;4.70;81.38
76404;BME280;65232;48.358;2.122;2023-04-07T01:46:48;101061.47;;;4.73;81.20
76404;BME280;65232;48.358;2.122;2023-04-07T01:47:15;101058.13;;;4.69;81.34
76404;BME280;65232;48.358;2.122;2023-04-07T01:47:42;101054.53;;;4.70;81.59
76404;BME280;65232;48.358;2.122;2023-04-07T01:48:08;101051.03;;;4.70;81.62
76404;BME280;65232;48.358;2.122;2023-04-07T01:48:34;101063.28;;;4.72;81.10
76404;BME280;65232;48.358;2.122;2023-04-07T01:49:02;101061.81;;;4.67;81.18
76404;BME280;65232;48.358;2.122;2023-04-07T01:49:29;101062.81;;;4.64;81.41
76404;BME280;65232;48.358;2.122;2023-04-07T01:49:57;101058.06;;;4.71;81.17
76404;BME280;65232;48.358;2.122;2023-04-07T01:50:23;101058.06;;;4.71;81.06
76404;BME280;65232;48.358;2.122;2023-04-07T01:50:50;101059.16;;;4.67;81.08
76404;BME280;65232;48.358;2.122;2023-04-07T01:51:16;101060.44;;;4.75;80.98
76404;BME280;65232;48.358;2.122;2023-04-07T01:51:43;101060.44;;;4.75;80.88
76404;BME280;65232;48.358;2.122;2023-04-07T01:52:15;101054.19;;;4.76;80.90
76404;BME280;65232;48.358;2.122;2023-04-07T01:52:42;101053.53;;;4.73;80.75
76404;BME280;65232;48.358;2.122;2023-04-07T01:53:08;101058.06;;;4.71;80.68
76404;BME280;65232;48.358;2.122;2023-04-07T01:53:34;101063.44;;;4.69;80.87
76404;BME280;65232;48.358;2.122;2023-04-07T01:54:03;101059.22;;;4.65;81.01
76404;BME280;65232;48.358;2.122;2023-04-07T01:54:29;101056.56;;;4.65;81.18
76404;BME280;65232;48.358;2.122;2023-04-07T01:54:55;101058.44;;;4.63;81.00
76404;BME280;65232;48.358;2.122;2023-04-07T01:55:23;101061.44;;;4.57;80.84
76404;BME280;65232;48.358;2.122;2023-04-07T01:55:59;101064.19;;;4.55;81.10
76404;BME280;65232;48.358;2.122;2023-04-07T01:56:25;101060.50;;;4.58;81.34
76404;BME280;65232;48.358;2.122;2023-04-07T01:56:52;101063.09;;;4.59;81.52
76404;BME280;65232;48.358;2.122;2023-04-07T01:57:17;101061.59;;;4.54;81.43
76404;BME280;65232;48.358;2.122;2023-04-07T01:57:43;101061.44;;;4.57;81.54
76404;BME280;65232;48.358;2.122;2023-04-07T01:58:15;101060.66;;;4.55;81.41
76404;BME280;65232;48.358;2.122;2023-04-07T01:58:42;101063.47;;;4.52;81.13
76404;BME280;65232;48.358;2.122;2023-04-07T01:59:10;101060.81;;;4.52;81.61
76404;BME280;65232;48.358;2.122;2023-04-07T01:59:35;101066.13;;;4.52;81.37
76404;BME280;65232;48.358;2.122;2023-04-07T02:00:03;101060.13;;;4.48;81.39
76404;BME280;65232;48.358;2.122;2023-04-07T02:00:40;101068.84;;;4.50;81.38
76404;BME280;65232;48.358;2.122;2023-04-07T02:01:10;101060.91;;;4.50;81.35
76404;BME280;65232;48.358;2.122;2023-04-07T02:01:37;101062.47;;;4.54;81.60
76404;BME280;65232;48.358;2.122;2023-04-07T02:02:02;101065.91;;;4.56;81.42
76404;BME280;65232;48.358;2.122;2023-04-07T02:02:28;101066.91;;;4.54;81.57
76404;BME280;65232;48.358;2.122;2023-04-07T02:02:58;101057.56;;;4.47;81.50
76404;BME280;65232;48.358;2.122;2023-04-07T02:03:35;101055.25;;;4.41;81.76
76404;BME280;65232;48.358;2.122;2023-04-07T02:04:23;101053.19;;;4.46;81.79
76404;BME280;65232;48.358;2.122;2023-04-07T02:05:18;101059.47;;;4.45;81.81
76404;BME280;65232;48.358;2.122;2023-04-07T02:05:45;101063.78;;;4.46;81.87
76404;BME280;65232;48.358;2.122;2023-04-07T02:06:14;101062.13;;;4.45;81.78
76404;BME280;65232;48.358;2.122;2023-04-07T02:06:47;101060.56;;;4.41;81.94
76404;BME280;65232;48.358;2.122;2023-04-07T02:07:21;101062.94;;;4.45;81.74
76404;BME280;65232;48.358;2.122;2023-04-07T02:07:52;101059.53;;;4.43;81.69
76404;BME280;65232;48.358;2.122;2023-04-07T02:08:20;101058.41;;;4.47;81.64
76404;BME280;65232;48.358;2.122;2023-04-07T02:08:53;101063.78;;;4.46;81.68
76404;BME280;65232;48.358;2.122;2023-04-07T02:09:21;101059.53;;;4.43;81.49
76404;BME280;65232;48.358;2.122;2023-04-07T02:09:48;101058.81;;;4.57;81.54
76404;BME280;65232;48.358;2.122;2023-04-07T02:10:16;101053.31;;;4.60;80.95
76404;BME280;65232;48.358;2.122;2023-04-07T02:10:46;101051.44;;;4.62;80.82
76404;BME280;65232;48.358;2.122;2023-04-07T02:11:15;101051.72;;;4.57;80.85
76404;BME280;65232;48.358;2.122;2023-04-07T02:11:43;101055.22;;;4.58;80.89
76404;BME280;65232;48.358;2.122;2023-04-07T02:12:12;101055.44;;;4.53;80.82
76404;BME280;65232;48.358;2.122;2023-04-07T02:12:44;101054.44;;;4.56;81.03
76404;BME280;65232;48.358;2.122;2023-04-07T02:13:15;101060.59;;;4.56;80.81
76404;BME280;65232;48.358;2.122;2023-04-07T02:13:43;101061.91;;;4.48;81.23
76404;BME280;65232;48.358;2.122;2023-04-07T02:14:12;101059.84;;;4.37;81.43
76404;BME280;65232;48.358;2.122;2023-04-07T02:14:52;101056.28;;;4.38;81.75
76404;BME280;65232;48.358;2.122;2023-04-07T02:15:20;101059.78;;;4.39;81.76
76404;BME280;65232;48.358;2.122;2023-04-07T02:15:47;101062.34;;;4.40;81.41
76404;BME280;65232;48.358;2.122;2023-04-07T02:16:17;101061.41;;;4.41;81.48
76404;BME280;65232;48.358;2.122;2023-04-07T02:16:45;101061.34;;;4.43;81.56
76404;BME280;65232;48.358;2.122;2023-04-07T02:17:12;101062.84;;;4.47;81.48
76404;BME280;65232;48.358;2.122;2023-04-07T02:17:40;101057.91;;;4.41;81.28
76404;BME280;65232;48.358;2.122;2023-04-07T02:18:07;101058.75;;;4.41;81.23
76404;BME280;65232;48.358;2.122;2023-04-07T02:18:36;101063.91;;;4.44;81.07
76404;BME280;65232;48.358;2.122;2023-04-07T02:19:02;101058.50;;;4.46;81.00
76404;BME280;65232;48.358;2.122;2023-04-07T02:19:28;101051.66;;;4.42;81.14
76404;BME280;65232;48.358;2.122;2023-04-07T02:19:55;101060.72;;;4.38;81.33
76404;BME280;65232;48.358;2.122;2023-04-07T02:20:22;101057.22;;;4.37;81.10
76404;BME280;65232;48.358;2.122;2023-04-07T02:20:49;101063.44;;;4.36;81.06
76404;BME280;65232;48.358;2.122;2023-04-07T02:21:17;101059.16;;;4.34;81.39
76404;BME280;65232;48.358;2.122;2023-04-07T02:21:44;101053.25;;;4.29;81.35
76404;BME280;65232;48.358;2.122;2023-04-07T02:22:11;101060.44;;;4.27;81.74
76404;BME280;65232;48.358;2.122;2023-04-07T02:22:37;101063.78;;;4.30;81.58
76404;BME280;65232;48.358;2.122;2023-04-07T02:23:06;101061.03;;;4.32;81.56
76404;BME280;65232;48.358;2.122;2023-04-07T02:23:34;101058.38;;;4.32;81.67
76404;BME280;65232;48.358;2.122;2023-04-07T02:24:00;101056.59;;;4.32;81.66
76404;BME280;65232;48.358;2.122;2023-04-07T02:24:26;101063.59;;;4.33;81.56
76404;BME280;65232;48.358;2.122;2023-04-07T02:24:51;101051.28;;;4.32;81.51
76404;BME280;65232;48.358;2.122;2023-04-07T02:25:23;101052.22;;;4.31;81.76
76404;BME280;65232;48.358;2.122;2023-04-07T02:25:48;101054.44;;;4.23;81.85
76404;BME280;65232;48.358;2.122;2023-04-07T02:26:14;101058.78;;;4.24;81.79
76404;BME280;65232;48.358;2.122;2023-04-07T02:26:41;101059.66;;;4.24;81.78
76404;BME280;65232;48.358;2.122;2023-04-07T02:27:07;101052.56;;;4.25;81.79
76404;BME280;65232;48.358;2.122;2023-04-07T02:27:32;101052.63;;;4.23;81.70
76404;BME280;65232;48.358;2.122;2023-04-07T02:27:59;101057.78;;;4.27;81.79
76404;BME280;65232;48.358;2.122;2023-04-07T02:28:24;101058.38;;;4.32;81.62
76404;BME280;65232;48.358;2.122;2023-04-07T02:28:50;101055.72;;;4.32;81.56
76404;BME280;65232;48.358;2.122;2023-04-07T02:29:16;101057.50;;;4.31;81.70
76404;BME280;65232;48.358;2.122;2023-04-07T02:29:42;101054.72;;;4.34;81.62
76404;BME280;65232;48.358;2.122;2023-04-07T02:30:07;101052.13;;;4.33;81.48
76404;BME280;65232;48.358;2.122;2023-04-07T02:30:34;101055.66;;;4.33;81.30
76404;BME280;65232;48.358;2.122;2023-04-07T02:30:59;101053.94;;;4.32;81.32
76404;BME280;65232;48.358;2.122;2023-04-07T02:31:25;101054.78;;;4.33;81.22
76404;BME280;65232;48.358;2.122;2023-04-07T02:31:51;101052.63;;;4.23;81.33
76404;BME280;65232;48.358;2.122;2023-04-07T02:32:17;101049.84;;;4.27;81.26
76404;BME280;65232;48.358;2.122;2023-04-07T02:32:42;101050.06;;;4.22;81.25
76404;BME280;65232;48.358;2.122;2023-04-07T02:33:08;101058.16;;;4.19;81.47
76404;BME280;65232;48.358;2.122;2023-04-07T02:33:33;101052.09;;;4.17;81.61
76404;BME280;65232;48.358;2.122;2023-04-07T02:33:59;101048.59;;;4.16;81.84
76404;BME280;65232;48.358;2.122;2023-04-07T02:34:24;101055.66;;;4.16;81.65
76404;BME280;65232;48.358;2.122;2023-04-07T02:34:49;101057.31;;;4.18;81.51
76404;BME280;65232;48.358;2.122;2023-04-07T02:35:15;101052.47;;;4.27;81.46